Time;durP1;ratioP1;P1;durP2;ratioP2;P2;SDS_P1;SDS_P2;PMS_P1;PMS_P2;Temp;Humidity;BMP_temperature;BMP_pressure;BME280_temperature;BME280_humidity;BME280_pressure;Samples;Min_cycle;Max_cycle;Signal;HPM_P1;HPM_P2
2021/09/23 00:00:05;;;;;;;10.50;5.97;;;12.00;99.90;;;;;;5045047;28;20543;-80
2021/09/23 00:02:47;;;;;;;13.63;6.73;;;11.90;99.90;;;;;;5040097;28;20425;-81
2021/09/23 00:05:17;;;;;;;11.10;6.13;;;11.90;99.90;;;;;;5037632;28;20449;-81
2021/09/23 00:07:45;;;;;;;8.47;6.90;;;12.00;99.90;;;;;;5037200;28;20461;-81
2021/09/23 00:10:14;;;;;;;8.83;6.27;;;12.00;99.90;;;;;;5039003;28;20477;-80
2021/09/23 00:12:41;;;;;;;10.73;7.00;;;11.90;99.90;;;;;;5029796;28;20457;-82
2021/09/23 00:15:10;;;;;;;9.13;7.03;;;11.90;99.90;;;;;;5038059;28;20475;-80
2021/09/23 00:17:37;;;;;;;10.93;6.97;;;11.90;99.90;;;;;;5037502;28;20458;-81
2021/09/23 00:20:05;;;;;;;8.20;5.73;;;11.80;99.90;;;;;;5038565;28;20479;-81
2021/09/23 00:22:33;;;;;;;9.50;6.57;;;11.90;99.90;;;;;;5038638;28;20428;-81
2021/09/23 00:25:00;;;;;;;10.33;6.30;;;11.90;99.90;;;;;;5038103;28;20523;-81
2021/09/23 00:27:27;;;;;;;13.20;7.43;;;11.90;99.90;;;;;;5025437;28;20585;-82
2021/09/23 00:29:54;;;;;;;12.33;7.47;;;11.90;99.90;;;;;;5037427;28;20505;-81
2021/09/23 00:32:21;;;;;;;12.43;6.70;;;11.90;99.90;;;;;;5040146;28;20475;-82
2021/09/23 00:34:47;;;;;;;13.03;7.00;;;11.90;99.90;;;;;;5039151;28;20591;-81
2021/09/23 00:37:15;;;;;;;12.40;7.20;;;11.90;99.90;;;;;;5037783;28;20947;-81
2021/09/23 00:39:43;;;;;;;13.63;7.50;;;11.90;99.90;;;;;;5037392;28;20876;-79
2021/09/23 00:42:10;;;;;;;10.23;7.00;;;12.00;99.90;;;;;;5037735;28;20908;-81
2021/09/23 00:44:38;;;;;;;9.00;6.87;;;12.10;99.90;;;;;;5035647;28;20480;-82
2021/09/23 00:47:08;;;;;;;12.90;6.27;;;12.00;99.90;;;;;;5038686;28;20457;-80
2021/09/23 00:49:35;;;;;;;8.20;5.97;;;11.90;99.90;;;;;;5038265;28;20563;-81
2021/09/23 00:52:02;;;;;;;8.73;6.90;;;11.90;99.90;;;;;;5038803;28;20489;-80
2021/09/23 00:54:29;;;;;;;10.50;7.00;;;11.90;99.90;;;;;;5037316;28;20576;-81
2021/09/23 00:56:57;;;;;;;10.07;5.70;;;12.00;99.90;;;;;;5036950;28;20449;-81
2021/09/23 00:59:24;;;;;;;9.53;6.60;;;12.00;99.90;;;;;;5034847;28;20444;-81
2021/09/23 01:01:50;;;;;;;9.03;6.13;;;11.90;99.90;;;;;;5035980;28;20450;-83
2021/09/23 01:04:17;;;;;;;10.00;6.27;;;11.90;99.90;;;;;;5037283;28;20467;-82
2021/09/23 01:06:44;;;;;;;12.83;6.73;;;12.00;99.90;;;;;;5037601;28;20449;-82
2021/09/23 01:09:11;;;;;;;11.10;7.10;;;12.10;99.90;;;;;;5037784;28;20473;-78
2021/09/23 01:11:38;;;;;;;11.10;5.80;;;11.90;99.90;;;;;;5039856;28;20460;-82
2021/09/23 01:14:06;;;;;;;11.60;7.70;;;12.00;99.90;;;;;;5039664;28;20577;-81
2021/09/23 01:16:33;;;;;;;10.23;6.10;;;11.90;99.90;;;;;;5037072;28;20510;-81
2021/09/23 01:19:00;;;;;;;10.10;7.53;;;12.10;99.90;;;;;;5032117;28;20517;-80
2021/09/23 01:21:28;;;;;;;13.80;7.37;;;12.10;99.90;;;;;;5041708;28;20450;-79
2021/09/23 01:23:55;;;;;;;9.73;7.30;;;12.00;99.90;;;;;;5038479;28;20465;-79
2021/09/23 01:26:26;;;;;;;10.90;7.80;;;12.00;99.90;;;;;;5037574;28;20453;-79
2021/09/23 01:28:53;;;;;;;11.97;6.50;;;11.80;99.90;;;;;;5036106;28;20481;-80
2021/09/23 01:31:21;;;;;;;10.93;7.10;;;11.90;99.90;;;;;;5037054;28;20470;-78
2021/09/23 01:33:48;;;;;;;12.40;6.87;;;11.80;99.90;;;;;;5035348;28;21040;-81
2021/09/23 01:36:15;;;;;;;15.23;7.57;;;11.70;99.90;;;;;;5017475;28;20826;-82
2021/09/23 01:38:43;;;;;;;11.40;7.63;;;11.70;99.90;;;;;;5032038;28;20460;-81
2021/09/23 01:41:11;;;;;;;14.73;8.63;;;11.60;99.90;;;;;;5041292;28;20471;-82
2021/09/23 01:43:38;;;;;;;14.23;7.50;;;11.60;99.90;;;;;;5041255;28;20468;-82
2021/09/23 01:46:05;;;;;;;13.03;7.63;;;11.50;99.90;;;;;;5040924;28;20465;-82
2021/09/23 01:48:32;;;;;;;11.23;7.00;;;11.40;99.90;;;;;;5040757;28;20459;-84
2021/09/23 01:50:58;;;;;;;11.80;7.67;;;11.50;99.90;;;;;;5037539;28;20541;-82
2021/09/23 01:53:25;;;;;;;11.77;7.60;;;11.50;99.90;;;;;;5039282;28;20463;-81
2021/09/23 01:55:54;;;;;;;12.53;7.90;;;11.50;99.90;;;;;;5041046;28;20457;-82
2021/09/23 01:58:20;;;;;;;10.27;7.37;;;11.50;99.90;;;;;;5040334;28;20468;-80
2021/09/23 02:00:47;;;;;;;13.77;8.00;;;11.40;99.90;;;;;;5039619;28;20480;-81
2021/09/23 02:03:14;;;;;;;11.50;6.63;;;11.50;99.90;;;;;;5039801;28;20456;-81
2021/09/23 02:05:41;;;;;;;9.77;6.70;;;11.30;99.90;;;;;;5039309;28;20457;-81
2021/09/23 02:08:08;;;;;;;13.07;7.10;;;11.30;99.90;;;;;;5037187;28;20427;-80
2021/09/23 02:10:36;;;;;;;13.03;7.60;;;11.20;99.90;;;;;;5037422;28;20552;-81
2021/09/23 02:13:04;;;;;;;9.57;6.60;;;11.20;99.90;;;;;;5038555;28;20460;-81
2021/09/23 02:15:31;;;;;;;9.60;7.20;;;11.30;99.90;;;;;;5038805;28;20427;-81
2021/09/23 02:17:57;;;;;;;9.33;6.40;;;11.30;99.90;;;;;;5038815;28;20539;-80
2021/09/23 02:20:24;;;;;;;12.70;7.87;;;11.30;99.90;;;;;;5040373;28;20477;-81
2021/09/23 02:22:52;;;;;;;9.43;6.43;;;11.30;99.90;;;;;;5044437;28;20445;-81
2021/09/23 02:25:18;;;;;;;11.47;7.33;;;11.30;99.90;;;;;;5034806;28;20446;-81
2021/09/23 02:27:51;;;;;;;10.03;7.40;;;11.30;99.90;;;;;;5023192;28;20450;-81
2021/09/23 02:30:19;;;;;;;10.73;6.80;;;11.20;99.90;;;;;;5039235;28;20465;-81
2021/09/23 02:32:46;;;;;;;14.07;7.60;;;11.30;99.90;;;;;;5039050;28;20457;-81
2021/09/23 02:35:13;;;;;;;15.80;7.97;;;11.20;99.90;;;;;;5039167;28;20583;-82
2021/09/23 02:37:40;;;;;;;11.03;6.53;;;11.20;99.90;;;;;;5038102;28;20457;-82
2021/09/23 02:40:09;;;;;;;10.30;6.80;;;11.30;99.90;;;;;;5039216;28;20484;-81
2021/09/23 02:42:36;;;;;;;10.80;6.77;;;11.20;99.90;;;;;;5023439;28;20524;-82
2021/09/23 02:45:03;;;;;;;12.57;7.47;;;11.10;99.90;;;;;;5023263;28;20450;-81
2021/09/23 02:47:32;;;;;;;9.37;6.87;;;11.10;99.90;;;;;;5037873;28;20452;-79
2021/09/23 02:49:58;;;;;;;9.50;6.53;;;11.10;99.90;;;;;;5041639;28;20992;-82
2021/09/23 02:52:25;;;;;;;9.40;6.03;;;11.00;99.90;;;;;;5038903;28;20493;-81
2021/09/23 02:54:52;;;;;;;13.07;7.80;;;11.00;99.90;;;;;;5038466;28;20488;-80
2021/09/23 02:57:19;;;;;;;12.67;7.47;;;10.90;99.90;;;;;;5038357;28;20453;-82
2021/09/23 02:59:46;;;;;;;14.80;8.07;;;10.80;99.90;;;;;;5036414;28;20482;-82
2021/09/23 03:02:12;;;;;;;9.80;6.80;;;10.90;99.90;;;;;;5038015;28;20545;-81
2021/09/23 03:04:41;;;;;;;11.60;7.40;;;10.90;99.90;;;;;;5038347;28;20495;-81
2021/09/23 03:07:08;;;;;;;9.73;6.80;;;10.90;99.90;;;;;;5037485;28;20460;-81
2021/09/23 03:09:35;;;;;;;12.93;7.67;;;10.80;99.90;;;;;;5038926;28;20490;-81
2021/09/23 03:12:01;;;;;;;11.40;6.97;;;10.70;99.90;;;;;;5039151;28;20551;-81
2021/09/23 03:14:28;;;;;;;11.33;8.03;;;10.80;99.90;;;;;;5035504;28;20478;-81
2021/09/23 03:16:55;;;;;;;11.30;7.73;;;10.70;99.90;;;;;;5018861;28;20519;-79
2021/09/23 03:19:22;;;;;;;11.60;7.60;;;10.70;99.90;;;;;;5030313;28;20477;-82
2021/09/23 03:21:50;;;;;;;10.23;7.10;;;10.70;99.90;;;;;;5039607;28;20520;-82
2021/09/23 03:24:17;;;;;;;11.73;7.37;;;10.70;99.90;;;;;;5039733;28;20457;-81
2021/09/23 03:26:44;;;;;;;12.23;6.83;;;10.80;99.90;;;;;;5038391;28;20510;-82
2021/09/23 03:29:11;;;;;;;10.70;7.67;;;10.80;99.90;;;;;;5038631;28;20493;-82
2021/09/23 03:31:39;;;;;;;10.20;7.20;;;10.70;99.90;;;;;;5032966;28;20513;-82
2021/09/23 03:34:06;;;;;;;10.40;6.47;;;10.70;99.90;;;;;;5035051;28;20491;-81
2021/09/23 03:36:33;;;;;;;9.37;6.73;;;10.60;99.90;;;;;;5050927;28;20460;-82
2021/09/23 03:39:01;;;;;;;10.27;6.70;;;10.70;99.90;;;;;;5044072;28;20579;-79
2021/09/23 03:41:30;;;;;;;12.03;7.50;;;10.80;99.90;;;;;;5068724;23;20563;-79
2021/09/23 03:43:57;;;;;;;9.87;7.30;;;11.00;99.90;;;;;;5040062;28;20551;-78
2021/09/23 03:46:24;;;;;;;10.07;6.73;;;11.00;99.90;;;;;;5032549;28;20908;-78
2021/09/23 03:48:50;;;;;;;9.53;6.50;;;10.80;99.90;;;;;;5038638;28;20452;-78
2021/09/23 03:51:17;;;;;;;11.27;7.00;;;10.60;99.90;;;;;;5039331;28;20468;-78
2021/09/23 03:53:44;;;;;;;11.40;6.63;;;10.40;99.90;;;;;;5037400;28;20495;-78
2021/09/23 03:56:13;;;;;;;9.23;6.73;;;10.30;99.90;;;;;;5019857;28;20449;-78
2021/09/23 03:58:41;;;;;;;10.87;7.60;;;10.30;99.90;;;;;;5019918;28;20461;-78
2021/09/23 04:01:07;;;;;;;13.27;7.30;;;10.30;99.90;;;;;;5029835;28;20471;-78
2021/09/23 04:03:34;;;;;;;11.30;7.90;;;10.30;99.90;;;;;;5039092;28;20452;-78
2021/09/23 04:06:01;;;;;;;10.57;7.57;;;10.40;99.90;;;;;;5041168;28;20467;-79
2021/09/23 04:08:28;;;;;;;10.30;6.93;;;10.40;99.90;;;;;;5042716;28;20477;-79
2021/09/23 04:10:55;;;;;;;11.77;7.13;;;10.40;99.90;;;;;;5032478;28;20576;-79
2021/09/23 04:13:23;;;;;;;10.90;6.77;;;10.40;99.90;;;;;;5026153;28;20477;-78
2021/09/23 04:15:50;;;;;;;11.57;6.60;;;10.40;99.90;;;;;;5038007;28;20516;-79
2021/09/23 04:18:18;;;;;;;9.93;7.50;;;10.40;99.90;;;;;;5042705;28;20460;-80
2021/09/23 04:20:45;;;;;;;10.10;6.40;;;10.40;99.90;;;;;;5025350;28;20484;-79
2021/09/23 04:23:13;;;;;;;9.17;6.93;;;10.50;99.90;;;;;;5020047;28;20463;-79
2021/09/23 04:25:40;;;;;;;10.83;7.23;;;10.50;99.90;;;;;;5015216;28;20897;-78
2021/09/23 04:28:06;;;;;;;11.93;7.30;;;10.40;99.90;;;;;;5015208;28;20465;-78
2021/09/23 04:30:35;;;;;;;9.53;6.23;;;10.40;99.90;;;;;;5029260;28;20532;-78
2021/09/23 04:33:01;;;;;;;9.53;6.53;;;10.50;99.90;;;;;;5031405;28;20471;-78
2021/09/23 04:35:28;;;;;;;11.20;6.80;;;10.50;99.90;;;;;;5033357;28;20477;-77
2021/09/23 04:37:55;;;;;;;10.50;7.27;;;10.60;99.90;;;;;;5025020;28;20457;-78
2021/09/23 04:40:22;;;;;;;8.80;6.43;;;10.50;99.90;;;;;;5013381;28;20453;-78
2021/09/23 04:42:49;;;;;;;11.00;7.13;;;10.40;99.90;;;;;;5013075;28;20452;-78
2021/09/23 04:45:16;;;;;;;10.50;7.10;;;10.30;99.90;;;;;;5031099;28;20449;-78
2021/09/23 04:47:44;;;;;;;10.50;7.13;;;10.30;99.90;;;;;;5032936;28;20708;-78
2021/09/23 04:50:12;;;;;;;10.43;7.77;;;10.30;99.90;;;;;;5032314;28;20467;-78
2021/09/23 04:52:39;;;;;;;11.57;7.20;;;10.30;99.90;;;;;;5016459;28;20501;-78
2021/09/23 04:55:06;;;;;;;9.40;6.77;;;10.40;99.90;;;;;;5014795;28;20473;-78
2021/09/23 04:57:33;;;;;;;11.73;7.83;;;10.40;99.90;;;;;;5017464;28;20447;-78
2021/09/23 05:00:02;;;;;;;12.17;8.30;;;10.40;99.90;;;;;;5020717;28;20462;-78
2021/09/23 05:02:31;;;;;;;12.53;8.63;;;10.40;99.90;;;;;;5015782;28;20492;-77
2021/09/23 05:04:59;;;;;;;11.53;8.10;;;10.40;99.90;;;;;;5013904;28;20497;-78
2021/09/23 05:07:26;;;;;;;11.97;7.80;;;10.40;99.90;;;;;;5015527;28;20456;-78
2021/09/23 05:09:54;;;;;;;15.23;8.20;;;10.60;99.90;;;;;;5013936;28;20453;-78
2021/09/23 05:12:21;;;;;;;10.87;7.73;;;10.70;99.90;;;;;;5020270;28;20477;-78
2021/09/23 05:14:47;;;;;;;9.73;7.60;;;10.80;99.90;;;;;;5036931;28;20976;-78
2021/09/23 05:17:14;;;;;;;10.27;7.67;;;10.80;99.90;;;;;;5037552;28;20444;-79
2021/09/23 05:19:41;;;;;;;12.33;7.97;;;10.60;99.90;;;;;;5017201;28;20465;-78
2021/09/23 05:22:09;;;;;;;13.87;8.77;;;10.40;99.90;;;;;;5017188;28;20561;-79
2021/09/23 05:24:36;;;;;;;14.93;8.90;;;10.40;99.90;;;;;;5018057;28;20457;-78
2021/09/23 05:27:03;;;;;;;11.67;8.53;;;10.30;99.90;;;;;;5018133;28;20449;-78
2021/09/23 05:29:30;;;;;;;15.73;8.90;;;10.40;99.90;;;;;;5017411;28;20452;-78
2021/09/23 05:31:57;;;;;;;10.90;7.63;;;10.50;99.90;;;;;;5018521;28;20486;-78
2021/09/23 05:34:24;;;;;;;12.13;7.90;;;10.50;99.90;;;;;;5017603;28;20453;-77
2021/09/23 05:36:52;;;;;;;15.23;8.97;;;10.60;99.90;;;;;;5018353;28;20460;-78
2021/09/23 05:39:20;;;;;;;11.33;8.00;;;10.60;99.90;;;;;;5021891;28;20459;-77
2021/09/23 05:41:47;;;;;;;9.87;6.97;;;10.60;99.90;;;;;;5031169;28;20459;-77
2021/09/23 05:44:14;;;;;;;11.47;7.33;;;10.70;99.90;;;;;;5040464;28;20455;-77
2021/09/23 05:46:41;;;;;;;11.30;6.80;;;10.70;99.90;;;;;;5040951;28;20811;-77
2021/09/23 05:49:08;;;;;;;14.60;7.80;;;10.70;99.90;;;;;;5035807;28;20521;-78
2021/09/23 05:51:35;;;;;;;9.43;6.70;;;10.60;99.90;;;;;;5022153;28;20537;-78
2021/09/23 05:54:01;;;;;;;12.10;7.20;;;10.60;99.90;;;;;;5030179;28;20510;-84
2021/09/23 05:56:30;;;;;;;12.40;7.37;;;10.60;99.90;;;;;;5041212;28;20479;-82
2021/09/23 05:58:56;;;;;;;13.33;8.37;;;10.60;99.90;;;;;;5015038;28;20456;-82
2021/09/23 06:01:23;;;;;;;12.23;7.43;;;10.60;99.90;;;;;;5004560;28;20517;-82
2021/09/23 06:03:50;;;;;;;13.50;7.50;;;10.50;99.90;;;;;;5019204;28;20536;-81
2021/09/23 06:06:17;;;;;;;12.07;8.20;;;10.50;99.90;;;;;;5024293;28;20830;-82
2021/09/23 06:08:44;;;;;;;18.77;10.13;;;10.60;99.90;;;;;;5024916;28;20441;-82
2021/09/23 06:11:11;;;;;;;14.40;9.13;;;10.60;99.90;;;;;;5025663;28;20485;-84
2021/09/23 06:13:41;;;;;;;14.30;8.20;;;10.60;99.90;;;;;;5024697;28;20453;-82
2021/09/23 06:16:08;;;;;;;10.47;8.17;;;10.60;99.90;;;;;;5017701;28;20485;-78
2021/09/23 06:18:34;;;;;;;13.33;8.87;;;10.70;99.90;;;;;;5019088;28;20943;-78
2021/09/23 06:21:01;;;;;;;15.47;10.00;;;10.70;99.90;;;;;;5015402;28;20559;-77
2021/09/23 06:23:28;;;;;;;12.83;8.80;;;10.70;99.90;;;;;;5014679;28;20454;-77
2021/09/23 06:25:55;;;;;;;16.50;9.97;;;10.80;99.90;;;;;;5025743;28;20906;-77
2021/09/23 06:28:22;;;;;;;23.27;10.10;;;11.00;99.90;;;;;;5016109;28;20556;-79
2021/09/23 06:30:50;;;;;;;14.87;9.37;;;11.00;99.90;;;;;;5015141;28;20469;-77
2021/09/23 06:33:17;;;;;;;26.57;15.17;;;11.10;99.90;;;;;;5015509;28;20462;-76
2021/09/23 06:35:44;;;;;;;13.67;9.10;;;11.10;99.90;;;;;;5015464;28;20482;-79
2021/09/23 06:38:11;;;;;;;14.80;9.17;;;11.20;99.90;;;;;;5016019;28;20469;-76
2021/09/23 06:40:38;;;;;;;14.73;9.27;;;11.40;99.90;;;;;;5016014;28;20900;-77
2021/09/23 06:43:05;;;;;;;12.67;9.40;;;11.50;99.90;;;;;;5013811;28;20458;-76
2021/09/23 06:45:32;;;;;;;15.53;9.20;;;11.60;99.90;;;;;;5013766;28;20828;-77
2021/09/23 06:48:00;;;;;;;12.70;9.00;;;11.70;99.90;;;;;;5014805;28;20450;-76
2021/09/23 06:50:28;;;;;;;16.60;9.70;;;11.80;99.90;;;;;;5016535;28;20451;-78
2021/09/23 06:52:55;;;;;;;14.57;10.63;;;11.90;99.90;;;;;;5027860;28;20478;-85
2021/09/23 06:55:21;;;;;;;11.53;9.70;;;12.00;99.90;;;;;;5024132;28;20508;-84
2021/09/23 06:57:48;;;;;;;14.97;10.60;;;12.10;99.90;;;;;;5024363;28;20533;-84
2021/09/23 07:00:17;;;;;;;13.80;9.80;;;12.20;99.90;;;;;;5023748;28;20454;-85
2021/09/23 07:02:45;;;;;;;18.80;10.70;;;12.40;99.90;;;;;;5023889;28;20584;-84
2021/09/23 07:05:14;;;;;;;15.03;10.50;;;12.40;99.90;;;;;;5026690;28;20466;-84
2021/09/23 07:07:41;;;;;;;16.50;11.03;;;12.50;99.90;;;;;;5015701;28;20437;-83
2021/09/23 07:10:08;;;;;;;14.23;10.70;;;12.60;99.90;;;;;;5022137;28;20831;-85
2021/09/23 07:12:35;;;;;;;16.57;10.03;;;12.70;99.90;;;;;;5025080;28;20462;-84
2021/09/23 07:15:02;;;;;;;19.23;11.13;;;12.90;99.90;;;;;;5026586;28;20500;-83
2021/09/23 07:17:29;;;;;;;15.20;11.07;;;13.00;99.90;;;;;;5026284;28;20464;-83
2021/09/23 07:19:56;;;;;;;15.63;10.07;;;13.10;99.90;;;;;;5025129;28;20493;-85
2021/09/23 07:22:24;;;;;;;21.47;10.83;;;13.00;99.90;;;;;;5032618;28;20496;-85
2021/09/23 07:24:51;;;;;;;13.47;9.30;;;13.20;99.90;;;;;;5041642;28;20465;-86
2021/09/23 07:27:18;;;;;;;21.63;11.33;;;13.30;99.90;;;;;;5024529;28;20454;-85
2021/09/23 07:29:45;;;;;;;11.57;9.23;;;13.40;99.90;;;;;;5025393;28;20466;-87
2021/09/23 07:32:12;;;;;;;15.43;11.23;;;13.60;99.90;;;;;;5020469;28;20480;-84
2021/09/23 07:34:39;;;;;;;15.33;10.53;;;13.60;99.90;;;;;;5018424;28;20459;-87
2021/09/23 07:37:06;;;;;;;18.40;11.13;;;13.50;99.90;;;;;;5030352;28;20576;-87
2021/09/23 07:39:35;;;;;;;17.57;11.50;;;13.70;99.90;;;;;;5025531;28;20450;-87
2021/09/23 07:42:02;;;;;;;17.03;12.70;;;13.60;99.90;;;;;;5020379;28;20517;-87
2021/09/23 07:44:29;;;;;;;15.67;10.93;;;13.70;99.90;;;;;;5019856;28;20529;-86
2021/09/23 07:46:59;;;;;;;16.97;11.27;;;13.80;99.90;;;;;;5017378;28;20504;-87
2021/09/23 07:49:26;;;;;;;18.43;11.50;;;13.80;99.90;;;;;;5018543;28;20512;-86
2021/09/23 07:51:53;;;;;;;14.27;10.60;;;13.90;99.90;;;;;;5031683;28;20473;-86
2021/09/23 07:54:21;;;;;;;13.27;10.67;;;14.00;99.90;;;;;;5036365;28;20455;-86
2021/09/23 07:56:49;;;;;;;16.13;11.10;;;14.20;99.90;;;;;;5036472;28;20485;-87
2021/09/23 07:59:18;;;;;;;24.67;11.90;;;14.30;99.90;;;;;;5036563;28;20540;-86
2021/09/23 08:01:45;;;;;;;13.40;10.33;;;14.30;99.90;;;;;;5017635;28;20470;-86
2021/09/23 08:04:12;;;;;;;17.73;11.10;;;14.40;99.90;;;;;;5017149;28;20521;-86
2021/09/23 08:06:40;;;;;;;15.07;9.83;;;14.40;99.90;;;;;;5034132;28;20456;-86
2021/09/23 08:09:07;;;;;;;12.53;10.77;;;14.50;99.90;;;;;;5035542;28;20516;-86
2021/09/23 08:11:34;;;;;;;13.93;10.47;;;14.60;99.90;;;;;;5035543;28;20624;-85
2021/09/23 08:14:02;;;;;;;15.70;9.57;;;14.70;99.90;;;;;;5027834;28;20468;-85
2021/09/23 08:16:29;;;;;;;14.50;10.03;;;14.90;99.90;;;;;;5019827;28;20777;-85
2021/09/23 08:18:56;;;;;;;11.90;9.20;;;14.90;99.90;;;;;;5019938;28;20480;-85
2021/09/23 08:21:22;;;;;;;14.43;9.10;;;15.10;99.90;;;;;;5020436;28;20509;-85
2021/09/23 08:23:51;;;;;;;15.43;8.80;;;15.20;99.90;;;;;;5017241;28;20515;-85
2021/09/23 08:26:18;;;;;;;14.73;9.80;;;15.30;99.90;;;;;;5016821;28;20417;-85
2021/09/23 08:28:44;;;;;;;17.47;8.13;;;15.30;99.90;;;;;;5017469;28;20633;-85
2021/09/23 08:31:16;;;;;;;13.53;8.00;;;15.50;99.90;;;;;;5016690;28;20488;-85
2021/09/23 08:33:43;;;;;;;10.50;8.37;;;15.60;99.90;;;;;;5020956;28;20455;-85
2021/09/23 08:36:10;;;;;;;11.40;7.40;;;15.60;99.90;;;;;;5021094;28;20528;-85
2021/09/23 08:38:37;;;;;;;17.03;8.97;;;15.70;99.90;;;;;;5018362;28;20532;-86
2021/09/23 08:41:04;;;;;;;11.10;7.83;;;15.80;99.90;;;;;;5015795;28;20520;-86
2021/09/23 08:43:32;;;;;;;14.20;7.83;;;16.00;99.90;;;;;;5016074;28;20458;-86
2021/09/23 08:45:59;;;;;;;13.37;8.40;;;16.10;99.90;;;;;;5016310;28;20422;-86
2021/09/23 08:48:28;;;;;;;10.63;7.00;;;16.20;99.90;;;;;;5023659;28;20516;-87
2021/09/23 08:50:55;;;;;;;8.77;5.80;;;16.30;99.90;;;;;;5036321;28;20734;-86
2021/09/23 08:53:22;;;;;;;8.07;3.50;;;16.30;99.90;;;;;;5033223;28;20457;-86
2021/09/23 08:55:48;;;;;;;5.40;3.30;;;16.50;99.90;;;;;;5016626;28;20504;-86
2021/09/23 08:58:15;;;;;;;6.13;3.27;;;16.60;99.90;;;;;;5018395;28;20429;-86
2021/09/23 09:01:02;;;;;;;4.77;2.93;;;16.70;99.90;;;;;;5017632;28;20457;-86
2021/09/23 09:03:33;;;;;;;4.80;3.20;;;16.80;99.90;;;;;;5028308;28;20454;-86
2021/09/23 09:06:04;;;;;;;5.90;2.80;;;16.90;99.90;;;;;;5040437;28;20448;-86
2021/09/23 09:08:33;;;;;;;7.87;3.93;;;17.00;99.90;;;;;;5022787;28;20426;-86
2021/09/23 09:11:02;;;;;;;8.20;3.43;;;17.20;99.90;;;;;;5017067;28;20492;-86
2021/09/23 09:13:33;;;;;;;6.83;3.03;;;17.20;99.90;;;;;;5016202;28;20778;-86
2021/09/23 09:16:07;;;;;;;4.63;2.90;;;17.20;99.90;;;;;;5016122;28;20848;-85
2021/09/23 09:18:36;;;;;;;5.40;3.10;;;17.30;99.90;;;;;;5033929;28;20423;-85
2021/09/23 09:21:07;;;;;;;6.50;3.33;;;17.40;99.90;;;;;;5032335;28;21018;-85
2021/09/23 09:23:40;;;;;;;7.50;3.23;;;17.40;99.90;;;;;;5016109;28;20493;-85
2021/09/23 09:26:08;;;;;;;5.10;2.73;;;17.50;99.90;;;;;;5008066;28;20427;-86
2021/09/23 09:28:45;;;;;;;5.27;3.27;;;17.70;99.90;;;;;;5016343;28;20454;-85
2021/09/23 09:31:12;;;;;;;4.70;3.33;;;17.70;99.90;;;;;;4996024;28;20447;-85
2021/09/23 09:33:42;;;;;;;8.27;3.43;;;17.70;99.90;;;;;;5005179;28;20437;-85
2021/09/23 09:36:25;;;;;;;6.00;3.40;;;17.80;99.90;;;;;;5022961;28;20476;-85
2021/09/23 09:38:53;;;;;;;4.70;2.90;;;17.90;99.90;;;;;;5021871;28;20523;-84
2021/09/23 09:41:24;;;;;;;5.10;3.17;;;18.00;99.90;;;;;;5016633;28;20466;-86
2021/09/23 09:43:51;;;;;;;3.93;2.50;;;18.10;99.90;;;;;;5045722;23;20474;-81
2021/09/23 09:46:25;;;;;;;4.80;3.10;;;18.20;99.90;;;;;;5037025;28;20538;-81
2021/09/23 09:48:54;;;;;;;4.40;2.77;;;18.20;99.90;;;;;;5037726;28;20528;-81
2021/09/23 09:51:35;;;;;;;4.67;3.00;;;18.30;99.90;;;;;;5030370;28;20423;-81
2021/09/23 09:54:04;;;;;;;5.33;2.57;;;18.40;99.90;;;;;;5028752;28;20450;-81
2021/09/23 09:56:31;;;;;;;6.07;2.80;;;18.50;99.90;;;;;;5039709;28;20524;-81
2021/09/23 09:59:06;;;;;;;4.40;2.87;;;18.50;99.90;;;;;;5039467;28;20865;-81
2021/09/23 10:01:33;;;;;;;6.23;3.00;;;18.60;99.90;;;;;;5040985;28;20480;-81
2021/09/23 10:04:02;;;;;;;5.70;3.00;;;18.60;99.90;;;;;;5040528;28;20909;-81
2021/09/23 10:06:30;;;;;;;5.10;3.20;;;18.70;99.90;;;;;;5041998;28;20451;-79
2021/09/23 10:08:57;;;;;;;4.90;3.10;;;18.70;99.90;;;;;;5041477;28;20452;-79
2021/09/23 10:11:25;;;;;;;4.63;2.80;;;18.80;99.90;;;;;;5044193;28;20990;-80
2021/09/23 10:13:54;;;;;;;7.27;3.80;;;18.90;99.90;;;;;;5048409;28;20611;-78
2021/09/23 10:16:21;;;;;;;5.00;2.77;;;19.00;99.90;;;;;;5039532;28;20541;-81
2021/09/23 10:18:49;;;;;;;5.53;3.10;;;19.00;99.90;;;;;;5039178;28;20889;-81
2021/09/23 10:21:17;;;;;;;5.50;3.10;;;19.10;99.90;;;;;;5039581;28;20547;-79
2021/09/23 10:23:45;;;;;;;5.07;2.93;;;19.10;99.90;;;;;;5038701;28;20455;-81
2021/09/23 10:26:15;;;;;;;4.80;2.90;;;19.20;99.90;;;;;;5038456;28;20904;-81
2021/09/23 10:28:46;;;;;;;4.40;2.63;;;19.30;99.90;;;;;;5041408;28;20772;-80
2021/09/23 10:31:17;;;;;;;6.63;2.80;;;19.30;99.90;;;;;;5039464;28;20454;-79
2021/09/23 10:33:45;;;;;;;4.40;2.43;;;19.30;99.90;;;;;;5033049;28;20508;-79
2021/09/23 10:36:11;;;;;;;5.87;3.10;;;19.40;99.90;;;;;;5043100;28;20564;-80
2021/09/23 10:38:43;;;;;;;5.37;2.90;;;19.40;99.90;;;;;;5041824;28;20940;-80
2021/09/23 10:41:11;;;;;;;6.00;3.87;;;19.50;99.90;;;;;;5038963;28;20445;-81
2021/09/23 10:43:39;;;;;;;6.50;3.57;;;19.50;99.90;;;;;;5026112;28;20536;-78
2021/09/23 10:46:07;;;;;;;4.83;3.10;;;19.60;99.90;;;;;;5041099;28;20457;-80
2021/09/23 10:48:36;;;;;;;5.03;3.00;;;19.60;99.90;;;;;;5040535;28;20455;-78
2021/09/23 10:51:05;;;;;;;5.10;3.13;;;19.70;99.80;;;;;;5041101;28;20485;-81
2021/09/23 10:53:34;;;;;;;5.90;3.20;;;19.70;99.90;;;;;;5038587;28;20476;-81
2021/09/23 10:56:05;;;;;;;5.00;2.67;;;19.80;99.80;;;;;;5037977;28;20796;-81
2021/09/23 10:58:32;;;;;;;5.97;2.80;;;19.80;99.60;;;;;;5032732;28;20442;-80
2021/09/23 11:01:00;;;;;;;4.37;2.80;;;19.80;99.60;;;;;;5039912;28;20543;-81
2021/09/23 11:03:35;;;;;;;4.57;2.83;;;20.00;99.00;;;;;;5040605;28;20496;-80
2021/09/23 11:06:08;;;;;;;4.70;2.90;;;20.00;98.30;;;;;;5045596;28;20471;-78
2021/09/23 11:08:38;;;;;;;4.00;2.53;;;20.10;98.10;;;;;;5041274;28;20464;-81
2021/09/23 11:11:09;;;;;;;6.40;3.00;;;20.20;97.90;;;;;;5038011;28;20416;-81
2021/09/23 11:13:37;;;;;;;4.50;2.47;;;20.20;97.70;;;;;;5038496;28;20587;-81
2021/09/23 11:16:06;;;;;;;4.47;2.60;;;20.30;97.70;;;;;;5036903;28;20490;-80
2021/09/23 11:18:34;;;;;;;4.87;3.13;;;20.40;97.80;;;;;;5038783;28;20818;-80
2021/09/23 11:21:02;;;;;;;5.67;2.70;;;20.50;97.70;;;;;;5038080;28;20923;-81
2021/09/23 11:23:29;;;;;;;5.30;2.90;;;20.50;97.40;;;;;;5038775;28;20466;-81
2021/09/23 11:25:56;;;;;;;4.67;2.90;;;20.50;97.00;;;;;;5039750;28;20424;-81
2021/09/23 11:28:25;;;;;;;4.77;2.47;;;20.50;95.80;;;;;;5038649;28;20446;-81
2021/09/23 11:30:53;;;;;;;5.40;3.13;;;20.70;95.50;;;;;;5039168;28;20540;-81
2021/09/23 11:33:22;;;;;;;5.10;3.20;;;20.70;96.00;;;;;;5036197;28;20456;-79
2021/09/23 11:35:50;;;;;;;5.43;3.00;;;20.70;93.90;;;;;;5037350;28;20464;-79
2021/09/23 11:38:20;;;;;;;5.87;3.47;;;20.80;93.40;;;;;;5038371;28;20998;-79
2021/09/23 11:40:48;;;;;;;4.60;2.93;;;20.90;93.20;;;;;;5036839;28;20464;-82
2021/09/23 11:43:18;;;;;;;4.30;2.60;;;20.80;93.10;;;;;;5037709;28;21058;-78
2021/09/23 11:45:49;;;;;;;4.17;2.33;;;20.90;92.80;;;;;;5037815;28;20432;-78
2021/09/23 11:48:19;;;;;;;7.90;2.60;;;21.00;92.10;;;;;;5036956;28;20881;-79
2021/09/23 11:50:49;;;;;;;4.33;2.33;;;21.00;92.50;;;;;;5018718;28;20421;-78
2021/09/23 11:53:20;;;;;;;5.30;2.70;;;21.10;92.60;;;;;;5018962;28;20995;-79
2021/09/23 11:55:56;;;;;;;4.13;2.47;;;21.20;92.50;;;;;;5031156;28;20480;-78
2021/09/23 11:58:23;;;;;;;4.47;2.63;;;21.10;92.90;;;;;;5038544;28;20512;-78
2021/09/23 12:00:52;;;;;;;4.40;2.90;;;21.20;92.70;;;;;;5038493;28;20446;-78
2021/09/23 12:03:22;;;;;;;6.13;2.93;;;21.20;92.80;;;;;;5043620;28;20541;-79
2021/09/23 12:05:53;;;;;;;6.07;3.30;;;21.20;93.10;;;;;;5044064;28;20537;-77
2021/09/23 12:08:21;;;;;;;4.50;2.47;;;21.20;92.50;;;;;;5039826;28;20905;-78
2021/09/23 12:10:54;;;;;;;6.20;3.60;;;21.30;92.10;;;;;;5041853;28;20481;-78
2021/09/23 12:13:31;;;;;;;4.30;2.77;;;21.40;91.50;;;;;;5038984;28;20483;-77
2021/09/23 12:16:02;;;;;;;4.10;2.47;;;21.40;90.90;;;;;;5038254;28;20470;-78
2021/09/23 12:18:30;;;;;;;4.23;2.70;;;21.40;90.20;;;;;;5038177;28;20469;-79
2021/09/23 12:20:59;;;;;;;6.00;3.47;;;21.40;90.00;;;;;;5048060;28;20506;-78
2021/09/23 12:23:32;;;;;;;6.40;3.23;;;21.40;90.10;;;;;;5043934;28;20968;-78
2021/09/23 12:26:11;;;;;;;5.07;3.07;;;21.40;90.00;;;;;;5046256;28;20449;-77
2021/09/23 12:28:43;;;;;;;5.17;3.30;;;21.50;89.90;;;;;;5046242;28;20416;-78
2021/09/23 12:31:13;;;;;;;4.50;2.57;;;21.40;89.20;;;;;;5037651;28;20455;-78
2021/09/23 12:33:51;;;;;;;4.20;2.80;;;21.50;89.90;;;;;;5039244;28;20556;-78
2021/09/23 12:36:19;;;;;;;4.40;2.83;;;21.50;88.90;;;;;;5036487;28;20472;-78
2021/09/23 12:38:47;;;;;;;4.33;2.53;;;21.70;88.50;;;;;;5034644;28;21011;-82
2021/09/23 12:41:21;;;;;;;5.27;3.13;;;21.70;88.40;;;;;;5036841;28;20457;-80
2021/09/23 12:43:48;;;;;;;6.33;2.73;;;21.70;89.00;;;;;;5037718;28;20915;-78